Terminal Aerodrome Forecast
Issued by NWS Des Moines, IA

Home | Current Version | Previous Version | Text Only | Print | Product List | Glossary On
Versions: 1 2 3 4 5 6 7 8 9 10 11 12 13 14 15
000
FTUS43 KDMX 231725
TAFDSM
TAF
KDSM 231725Z 2318/2418 22010KT P6SM SKC
     FM240000 17006KT P6SM FEW200
     FM241100 16009KT P6SM FEW250 WS020/19035KT
     FM241300 17011G20KT P6SM FEW250
     FM241500 18016G28KT P6SM FEW250=

USA.gov is the U.S. government's official web portal to all federal, state and local government web resources and services.